createdAt,value
2024-02-21T00:01:56.438Z,13.30
2024-02-21T00:06:59.940Z,11.33
2024-02-21T00:12:05.669Z,11.80
2024-02-21T00:17:09.746Z,14.80
2024-02-21T00:22:15.480Z,11.80
2024-02-21T00:27:19.943Z,12.10
2024-02-21T00:32:23.087Z,14.93
2024-02-21T00:37:26.165Z,15.60
2024-02-21T00:42:30.689Z,15.23
2024-02-21T00:47:33.921Z,11.00
2024-02-21T00:52:37.145Z,15.67
2024-02-21T00:57:41.603Z,13.90
2024-02-21T01:02:44.788Z,14.10
2024-02-21T01:07:47.949Z,12.97
2024-02-21T01:12:52.519Z,12.47
2024-02-21T01:17:56.562Z,11.63
2024-02-21T01:22:59.898Z,14.03
2024-02-21T01:28:04.812Z,11.00
2024-02-21T01:33:07.973Z,13.70
2024-02-21T01:38:11.690Z,13.33
2024-02-21T01:43:21.343Z,12.73
2024-02-21T01:48:25.768Z,15.73
2024-02-21T01:53:32.515Z,14.90
2024-02-21T01:58:39.348Z,10.93
2024-02-21T02:03:43.250Z,12.23
2024-02-21T02:08:46.533Z,11.50
2024-02-21T02:13:51.064Z,16.03
2024-02-21T02:18:54.294Z,19.33
2024-02-21T02:23:59.640Z,16.03
2024-02-21T02:29:03.836Z,15.20
2024-02-21T02:34:07.132Z,13.77
2024-02-21T02:39:11.639Z,14.63
2024-02-21T02:44:14.744Z,13.00
2024-02-21T02:49:17.944Z,16.07
2024-02-21T02:54:22.425Z,16.40
2024-02-21T02:59:25.837Z,13.07
2024-02-21T03:04:29.221Z,15.50
2024-02-21T03:09:33.699Z,14.87
2024-02-21T03:14:37.159Z,14.97
2024-02-21T03:19:40.284Z,17.03
2024-02-21T03:24:44.896Z,15.23
2024-02-21T03:29:47.982Z,16.73
2024-02-21T03:34:51.393Z,11.97
2024-02-21T03:39:56.023Z,16.40
2024-02-21T03:44:59.698Z,12.03
2024-02-21T03:50:03.090Z,16.90
2024-02-21T03:55:09.655Z,15.03
2024-02-21T04:00:13.525Z,14.57
2024-02-21T04:05:18.141Z,13.53
2024-02-21T04:10:22.882Z,15.77
2024-02-21T04:15:26.228Z,14.00
2024-02-21T04:20:29.940Z,12.07
2024-02-21T04:25:34.494Z,11.87
2024-02-21T04:30:37.605Z,11.67
2024-02-21T04:35:40.845Z,12.30
2024-02-21T04:40:45.735Z,15.03
2024-02-21T04:45:48.868Z,10.87
2024-02-21T04:50:52.187Z,11.63
2024-02-21T04:55:56.667Z,10.30
2024-02-21T05:01:00.287Z,11.30
2024-02-21T05:06:03.490Z,11.60
2024-02-21T05:11:08.222Z,10.80
2024-02-21T05:16:11.377Z,11.20
2024-02-21T05:21:14.997Z,9.43
2024-02-21T05:26:23.892Z,6.97
2024-02-21T05:31:27.494Z,10.13
2024-02-21T05:36:31.380Z,12.93
2024-02-21T05:41:35.836Z,11.40
2024-02-21T05:46:39.038Z,10.20
2024-02-21T05:51:42.272Z,12.70
2024-02-21T05:56:49.655Z,12.97
2024-02-21T06:01:59.168Z,11.73
2024-02-21T06:07:03.085Z,13.13
2024-02-21T06:12:08.594Z,12.50
2024-02-21T06:17:11.987Z,11.17
2024-02-21T06:22:15.177Z,16.70
2024-02-21T06:27:19.742Z,15.33
2024-02-21T06:32:22.822Z,16.83
2024-02-21T06:37:26.041Z,14.77
2024-02-21T06:42:30.790Z,14.80
2024-02-21T06:47:33.981Z,15.77
2024-02-21T06:52:37.262Z,15.23
2024-02-21T06:57:41.879Z,13.90
2024-02-21T07:02:45.238Z,17.37
2024-02-21T07:07:48.518Z,17.07
2024-02-21T07:12:53.861Z,16.07
2024-02-21T07:17:56.992Z,14.17
2024-02-21T07:23:00.260Z,16.87
2024-02-21T07:28:05.258Z,16.13
2024-02-21T07:33:09.496Z,13.47
2024-02-21T07:38:14.301Z,14.63
2024-02-21T07:43:19.241Z,11.77
2024-02-21T07:48:25.530Z,13.90
2024-02-21T07:53:29.115Z,12.60
2024-02-21T07:58:33.564Z,12.27
2024-02-21T08:03:37.057Z,12.23
2024-02-21T08:08:40.174Z,15.17
2024-02-21T08:13:45.024Z,11.47
2024-02-21T08:18:48.517Z,13.73
2024-02-21T08:23:52.941Z,13.10
2024-02-21T08:28:59.839Z,12.93
2024-02-21T08:34:04.835Z,13.67
2024-02-21T08:39:08.612Z,10.90
2024-02-21T08:44:13.054Z,10.87
2024-02-21T08:49:16.342Z,10.93
2024-02-21T08:54:19.746Z,9.57
2024-02-21T08:59:24.399Z,10.43
2024-02-21T09:04:27.716Z,10.33
2024-02-21T09:09:30.892Z,11.37
2024-02-21T09:14:35.493Z,10.97
2024-02-21T09:19:38.692Z,9.80
2024-02-21T09:24:42.057Z,10.37
2024-02-21T09:29:46.775Z,10.00
2024-02-21T09:34:50.189Z,10.47
2024-02-21T09:39:53.832Z,10.33
2024-02-21T09:44:58.301Z,11.27
2024-02-21T09:50:04.794Z,13.00
2024-02-21T09:55:09.648Z,9.27
2024-02-21T10:00:22.465Z,12.53
2024-02-21T10:05:26.728Z,10.27
2024-02-21T10:10:31.071Z,10.47
2024-02-21T10:15:35.532Z,10.17
2024-02-21T10:20:38.665Z,12.20
2024-02-21T10:25:46.993Z,11.47
2024-02-21T10:30:53.788Z,10.97
2024-02-21T10:35:56.892Z,12.43
2024-02-21T10:41:00.216Z,11.63
2024-02-21T10:46:07.640Z,11.50
2024-02-21T10:51:18.332Z,12.80
2024-02-21T10:56:28.578Z,10.80
2024-02-21T11:01:34.146Z,12.07
2024-02-21T11:06:39.463Z,10.20
2024-02-21T11:11:43.682Z,10.93
2024-02-21T11:16:48.943Z,10.93
2024-02-21T11:21:52.936Z,8.60
2024-02-21T11:26:56.281Z,11.20
2024-02-21T11:32:00.952Z,10.20
2024-02-21T11:37:04.298Z,8.10
2024-02-21T11:42:09.304Z,7.63
2024-02-21T11:47:13.799Z,9.63
2024-02-21T11:52:17.622Z,7.73
2024-02-21T11:57:21.002Z,8.77
2024-02-21T12:02:25.495Z,9.50
2024-02-21T12:07:30.193Z,7.67
2024-02-21T12:12:37.430Z,7.63
2024-02-21T12:17:42.908Z,7.87
2024-02-21T12:22:46.329Z,7.90
2024-02-21T12:27:50.158Z,7.80
2024-02-21T12:32:54.945Z,9.60
2024-02-21T12:37:58.081Z,8.40
2024-02-21T12:43:03.911Z,7.00
2024-02-21T12:48:08.922Z,8.27
2024-02-21T12:53:20.022Z,9.60
2024-02-21T12:58:32.554Z,7.33
2024-02-21T13:03:37.044Z,7.97
2024-02-21T13:08:40.699Z,9.20
2024-02-21T13:13:43.881Z,7.27
2024-02-21T13:18:49.219Z,7.20
2024-02-21T13:23:52.646Z,10.03
2024-02-21T13:28:55.795Z,9.20
2024-02-21T13:34:00.327Z,10.37
2024-02-21T13:39:05.740Z,7.50
2024-02-21T13:44:10.584Z,9.30
2024-02-21T13:49:15.286Z,8.53
2024-02-21T13:54:20.372Z,8.87
2024-02-21T13:59:23.565Z,6.90
2024-02-21T14:04:28.526Z,8.37
2024-02-21T14:09:31.805Z,8.03
2024-02-21T14:14:36.865Z,8.30
2024-02-21T14:19:42.875Z,7.97
2024-02-21T14:24:47.319Z,5.90
2024-02-21T14:29:50.427Z,9.10
2024-02-21T14:34:54.920Z,8.13
2024-02-21T14:39:58.019Z,6.97
2024-02-21T14:45:06.070Z,7.80
2024-02-21T14:50:12.009Z,6.47
2024-02-21T14:55:16.237Z,6.90
2024-02-21T15:00:20.319Z,6.60
2024-02-21T15:05:25.490Z,7.00
2024-02-21T15:10:28.699Z,8.03
2024-02-21T15:15:32.723Z,4.90
2024-02-21T15:20:38.060Z,6.53
2024-02-21T15:25:41.258Z,6.30
2024-02-21T15:30:44.400Z,5.97
2024-02-21T15:35:49.332Z,8.13
2024-02-21T15:40:52.567Z,7.70
2024-02-21T15:45:55.655Z,5.83
2024-02-21T15:51:00.104Z,7.27
2024-02-21T15:56:04.602Z,7.30
2024-02-21T16:01:07.807Z,7.63
2024-02-21T16:06:12.381Z,8.97
2024-02-21T16:11:18.167Z,7.70
2024-02-21T16:16:22.580Z,8.97
2024-02-21T16:21:28.318Z,7.73
2024-02-21T16:26:32.101Z,7.97
2024-02-21T16:31:36.630Z,10.13
2024-02-21T16:36:41.087Z,5.83
2024-02-21T16:41:44.228Z,8.60
2024-02-21T16:46:48.153Z,8.93
2024-02-21T16:51:52.875Z,9.00
2024-02-21T16:56:55.987Z,5.93
2024-02-21T17:01:59.220Z,7.47
2024-02-21T17:07:03.824Z,9.10
2024-02-21T17:12:08.338Z,8.03
2024-02-21T17:17:11.872Z,6.90
2024-02-21T17:22:21.798Z,8.47
2024-02-21T17:27:24.996Z,10.10
2024-02-21T17:32:28.117Z,9.27
2024-02-21T17:37:34.381Z,10.63
2024-02-21T17:42:37.635Z,8.00
2024-02-21T17:47:41.282Z,10.23
2024-02-21T17:52:46.074Z,8.67
2024-02-21T17:57:50.914Z,10.47
2024-02-21T18:02:54.055Z,7.47
2024-02-21T18:07:58.905Z,7.93
2024-02-21T18:13:03.978Z,8.63
2024-02-21T18:18:07.206Z,8.37
2024-02-21T18:23:11.979Z,9.17
2024-02-21T18:28:15.438Z,10.73
2024-02-21T18:33:18.857Z,10.27
2024-02-21T18:38:23.347Z,7.43
2024-02-21T18:43:26.471Z,8.43
2024-02-21T18:48:29.967Z,6.87
2024-02-21T18:53:34.455Z,9.80
2024-02-21T18:58:37.765Z,9.67
2024-02-21T19:03:40.932Z,7.63
2024-02-21T19:08:45.816Z,8.77
2024-02-21T19:13:49.080Z,8.07
2024-02-21T19:18:52.269Z,7.23
2024-02-21T19:23:56.753Z,8.10
2024-02-21T19:29:00.241Z,8.77
2024-02-21T19:34:04.283Z,10.27
2024-02-21T19:39:11.034Z,7.23
2024-02-21T19:44:14.422Z,9.27
2024-02-21T19:49:17.780Z,8.07
2024-02-21T19:54:25.075Z,6.47
2024-02-21T19:59:29.096Z,8.53
2024-02-21T20:04:32.532Z,8.37
2024-02-21T20:09:38.111Z,7.67
2024-02-21T20:14:41.195Z,11.17
2024-02-21T20:19:44.316Z,9.50
2024-02-21T20:24:48.833Z,9.50
2024-02-21T20:29:52.196Z,8.53
2024-02-21T20:34:55.471Z,10.83
2024-02-21T20:40:00.146Z,8.47
2024-02-21T20:45:03.513Z,8.23
2024-02-21T20:50:07.497Z,10.30
2024-02-21T20:55:12.332Z,9.77
2024-02-21T21:00:16.233Z,8.53
2024-02-21T21:05:19.811Z,8.43
2024-02-21T21:10:24.959Z,10.17
2024-02-21T21:15:30.068Z,9.57
2024-02-21T21:20:35.569Z,9.07
2024-02-21T21:25:40.493Z,9.87
2024-02-21T21:30:44.201Z,8.90
2024-02-21T21:35:50.127Z,12.10
2024-02-21T21:40:54.601Z,10.50
2024-02-21T21:45:57.931Z,10.80
2024-02-21T21:51:01.254Z,10.33
2024-02-21T21:56:06.723Z,10.50
2024-02-21T22:01:14.419Z,14.53
2024-02-21T22:06:17.768Z,10.73
2024-02-21T22:11:22.245Z,12.73
2024-02-21T22:16:25.825Z,11.17
2024-02-21T22:21:28.997Z,11.67
2024-02-21T22:26:33.926Z,12.17
2024-02-21T22:31:37.013Z,10.07
2024-02-21T22:36:40.390Z,9.80
2024-02-21T22:41:46.180Z,11.37
2024-02-21T22:46:49.469Z,12.27
2024-02-21T22:51:52.661Z,13.07
2024-02-21T22:56:57.101Z,11.03
2024-02-21T23:02:00.295Z,10.23
2024-02-21T23:07:04.190Z,11.17
2024-02-21T23:12:10.350Z,10.03
2024-02-21T23:17:13.568Z,9.77
2024-02-21T23:22:16.694Z,10.67
2024-02-21T23:27:21.096Z,10.33
2024-02-21T23:32:25.554Z,11.03
2024-02-21T23:37:28.853Z,11.90
2024-02-21T23:42:33.541Z,11.50
2024-02-21T23:47:36.665Z,11.67
2024-02-21T23:52:39.976Z,10.50
2024-02-21T23:57:44.418Z,11.67
